createdAt,value
2017-10-25T00:00:51.538Z,33.53
2017-10-25T00:03:18.939Z,34.90
2017-10-25T00:05:46.330Z,34.37
2017-10-25T00:08:13.817Z,35.40
2017-10-25T00:10:41.263Z,34.90
2017-10-25T00:13:08.719Z,35.30
2017-10-25T00:15:36.113Z,34.33
2017-10-25T00:18:03.515Z,34.67
2017-10-25T00:20:30.911Z,33.67
2017-10-25T00:22:58.345Z,33.50
2017-10-25T00:25:25.811Z,32.30
2017-10-25T00:27:53.216Z,34.03
2017-10-25T00:30:20.718Z,36.27
2017-10-25T00:32:48.119Z,32.57
2017-10-25T00:35:15.531Z,35.23
2017-10-25T00:37:42.982Z,34.30
2017-10-25T00:40:10.456Z,34.37
2017-10-25T00:42:37.894Z,35.90
2017-10-25T00:45:05.356Z,34.43
2017-10-25T00:47:32.812Z,36.27
2017-10-25T00:50:00.210Z,35.40
2017-10-25T00:52:27.613Z,35.20
2017-10-25T00:54:55.019Z,38.30
2017-10-25T00:57:22.430Z,36.00
2017-10-25T00:59:49.885Z,37.13
2017-10-25T01:02:17.278Z,34.07
2017-10-25T02:36:18.421Z,35.13
2017-10-25T02:38:45.818Z,33.00
2017-10-25T02:41:13.306Z,34.70
2017-10-25T02:43:40.698Z,32.70
2017-10-25T02:46:08.114Z,32.93
2017-10-25T02:48:35.503Z,31.83
2017-10-25T02:51:03.036Z,34.10
2017-10-25T02:53:30.422Z,32.87
2017-10-25T02:55:57.834Z,33.60
2017-10-25T02:58:25.234Z,33.30
2017-10-25T03:00:52.629Z,34.50
2017-10-25T03:03:20.041Z,34.87
2017-10-25T03:05:47.423Z,33.63
2017-10-25T03:08:14.828Z,34.33
2017-10-25T03:10:42.226Z,33.90
2017-10-25T03:13:09.631Z,34.17
2017-10-25T03:15:37.027Z,33.03
2017-10-25T03:18:04.426Z,35.00
2017-10-25T03:20:31.828Z,35.67
2017-10-25T03:22:59.232Z,32.10
2017-10-25T03:25:26.630Z,33.50
2017-10-25T03:27:54.039Z,33.67
2017-10-25T03:30:21.528Z,33.13
2017-10-25T03:32:48.991Z,32.90
2017-10-25T03:35:16.391Z,31.77
2017-10-25T03:37:43.899Z,32.47
2017-10-25T03:40:11.303Z,31.27
2017-10-25T03:42:38.707Z,29.80
2017-10-25T03:45:06.109Z,30.13
2017-10-25T03:47:33.514Z,28.70
2017-10-25T03:50:00.902Z,27.30
2017-10-25T03:52:28.327Z,27.03
2017-10-25T03:54:55.734Z,25.73
2017-10-25T03:57:23.135Z,27.30
2017-10-25T03:59:50.595Z,24.93
2017-10-25T04:02:18.040Z,23.63
2017-10-25T04:04:45.444Z,22.70
2017-10-25T04:07:12.862Z,25.97
2017-10-25T04:09:40.254Z,25.77
2017-10-25T04:12:07.674Z,25.57
2017-10-25T04:14:35.066Z,24.93
2017-10-25T04:17:02.460Z,22.77
2017-10-25T04:19:29.938Z,22.53
2017-10-25T04:21:57.344Z,23.40
2017-10-25T04:24:24.738Z,21.53
2017-10-25T04:26:52.126Z,23.97
2017-10-25T04:29:19.547Z,21.47
2017-10-25T04:31:47.026Z,20.77
2017-10-25T04:34:14.430Z,20.13
2017-10-25T04:36:41.839Z,23.27
2017-10-25T04:39:09.293Z,21.30
2017-10-25T04:41:36.692Z,21.83
2017-10-25T04:44:04.081Z,21.03
2017-10-25T04:46:31.572Z,21.70
2017-10-25T04:48:58.956Z,20.90
2017-10-25T04:51:26.387Z,20.87
2017-10-25T04:53:53.784Z,22.03
2017-10-25T04:56:21.176Z,18.17
2017-10-25T04:58:48.580Z,18.27
2017-10-25T05:01:15.995Z,18.10
2017-10-25T05:03:43.395Z,17.80
2017-10-25T05:06:10.798Z,18.10
2017-10-25T05:08:38.222Z,15.90
2017-10-25T05:11:05.729Z,13.67
2017-10-25T05:13:33.202Z,13.70
2017-10-25T05:16:00.585Z,12.30
2017-10-25T05:18:28.015Z,12.60
2017-10-25T05:20:55.403Z,12.67
2017-10-25T05:23:22.811Z,11.17
2017-10-25T05:25:50.211Z,12.87
2017-10-25T05:28:17.611Z,13.70
2017-10-25T05:30:45.077Z,13.50
2017-10-25T05:33:12.522Z,13.30
2017-10-25T05:35:39.992Z,12.80
2017-10-25T05:38:07.438Z,13.37
2017-10-25T05:40:34.835Z,12.83
2017-10-25T05:43:02.235Z,13.37
2017-10-25T05:45:29.712Z,13.20
2017-10-25T05:47:57.111Z,14.00
2017-10-25T05:50:24.614Z,14.00
2017-10-25T05:52:52.083Z,13.97
2017-10-25T05:55:19.539Z,12.93
2017-10-25T05:57:46.940Z,12.93
2017-10-25T06:00:14.363Z,12.33
2017-10-25T06:02:41.807Z,13.80
2017-10-25T06:05:09.260Z,11.90
2017-10-25T06:07:36.664Z,11.33
2017-10-25T06:10:04.072Z,11.43
2017-10-25T06:12:31.475Z,12.00
2017-10-25T06:14:58.871Z,12.13
2017-10-25T06:17:26.279Z,12.50
2017-10-25T06:19:53.674Z,11.97
2017-10-25T06:22:21.088Z,11.83
2017-10-25T06:24:48.511Z,10.17
2017-10-25T06:27:15.907Z,11.23
2017-10-25T06:29:43.419Z,11.53
2017-10-25T06:32:10.880Z,12.10
2017-10-25T06:34:38.268Z,11.33
2017-10-25T06:37:05.690Z,10.63
2017-10-25T06:39:33.143Z,11.77
2017-10-25T06:42:00.542Z,10.30
2017-10-25T06:44:27.955Z,10.43
2017-10-25T06:46:55.351Z,10.30
2017-10-25T06:49:22.747Z,9.40
2017-10-25T06:51:50.149Z,10.60
2017-10-25T06:54:17.572Z,10.30
2017-10-25T06:56:45.035Z,9.50
2017-10-25T06:59:12.485Z,10.53
2017-10-25T07:01:39.894Z,10.15
2017-10-25T07:04:07.294Z,10.40
2017-10-25T07:06:34.759Z,11.07
2017-10-25T07:09:02.219Z,10.80
2017-10-25T07:11:29.614Z,10.90
2017-10-25T07:13:57.006Z,11.97
2017-10-25T07:16:24.402Z,12.50
2017-10-25T07:18:51.802Z,13.43
2017-10-25T07:21:19.194Z,11.93
2017-10-25T07:23:46.655Z,14.10
2017-10-25T07:26:14.102Z,15.33
2017-10-25T07:28:41.507Z,13.73
2017-10-25T07:31:08.910Z,15.40
2017-10-25T07:33:36.311Z,15.47
2017-10-25T07:36:03.711Z,16.67
2017-10-25T07:38:31.106Z,18.00
2017-10-25T07:40:58.523Z,18.90
2017-10-25T07:43:25.954Z,18.80
2017-10-25T07:45:53.360Z,20.57
2017-10-25T07:48:20.742Z,19.97
2017-10-25T07:50:48.153Z,21.50
2017-10-25T07:53:15.535Z,20.73
2017-10-25T07:55:42.940Z,22.43
2017-10-25T07:58:10.422Z,21.50
2017-10-25T08:00:37.826Z,22.70
2017-10-25T08:03:05.239Z,22.63
2017-10-25T08:05:32.694Z,22.97
2017-10-25T08:08:00.082Z,23.60
2017-10-25T08:10:27.491Z,22.73
2017-10-25T08:12:54.966Z,23.83
2017-10-25T08:15:22.423Z,21.97
2017-10-25T08:17:49.814Z,24.30
2017-10-25T08:20:17.222Z,21.40
2017-10-25T08:22:44.611Z,21.77
2017-10-25T08:25:12.011Z,18.97
2017-10-25T08:27:39.499Z,18.83
2017-10-25T08:30:06.903Z,18.93
2017-10-25T08:32:34.294Z,16.63
2017-10-25T08:35:01.703Z,16.37
2017-10-25T08:37:29.126Z,15.87
2017-10-25T08:39:56.579Z,12.20
2017-10-25T08:42:23.976Z,10.47
2017-10-25T08:44:51.380Z,11.77
2017-10-25T08:47:18.779Z,10.90
2017-10-25T08:49:46.179Z,10.33
2017-10-25T08:52:13.667Z,10.00
2017-10-25T08:54:41.123Z,9.53
2017-10-25T08:57:08.506Z,9.77
2017-10-25T08:59:36.032Z,10.07
2017-10-25T09:02:03.487Z,11.10
2017-10-25T09:04:30.882Z,11.57
2017-10-25T09:06:58.299Z,9.50
2017-10-25T09:09:25.703Z,11.60
2017-10-25T09:11:53.220Z,11.23
2017-10-25T09:14:21.533Z,14.70
2017-10-25T09:16:48.930Z,12.67
2017-10-25T09:19:16.408Z,10.00
2017-10-25T09:21:43.867Z,8.67
2017-10-25T09:24:11.255Z,8.50
2017-10-25T09:26:38.669Z,7.90
2017-10-25T09:29:06.057Z,7.13
2017-10-25T09:31:33.450Z,7.33
2017-10-25T09:34:00.835Z,7.70
2017-10-25T09:36:28.236Z,7.77
2017-10-25T09:38:56.579Z,7.10
2017-10-25T09:41:23.971Z,7.30
2017-10-25T09:43:51.371Z,8.27
2017-10-25T09:46:18.842Z,8.10
2017-10-25T09:48:46.302Z,8.40
2017-10-25T09:51:13.688Z,8.00
2017-10-25T09:53:41.086Z,8.20
2017-10-25T09:56:08.463Z,7.40
2017-10-25T09:58:35.858Z,9.87
2017-10-25T10:01:03.286Z,7.67
2017-10-25T10:03:30.686Z,7.07
2017-10-25T10:05:58.076Z,6.50
2017-10-25T10:08:25.554Z,5.43
2017-10-25T10:10:52.951Z,5.00
2017-10-25T10:13:20.342Z,6.63
2017-10-25T10:15:47.744Z,4.13
2017-10-25T10:18:15.122Z,4.90
2017-10-25T10:20:42.509Z,4.53
2017-10-25T10:23:09.905Z,4.33
2017-10-25T10:25:37.288Z,3.90
2017-10-25T10:28:04.748Z,4.60
2017-10-25T10:30:32.261Z,4.20
2017-10-25T10:32:59.707Z,3.70
2017-10-25T10:35:27.162Z,3.77
2017-10-25T10:37:54.613Z,4.20
2017-10-25T10:40:22.007Z,3.10
2017-10-25T10:42:49.459Z,3.40
2017-10-25T10:45:16.842Z,4.30
2017-10-25T10:47:44.237Z,4.37
2017-10-25T10:50:11.627Z,4.27
2017-10-25T10:52:39.016Z,3.87
2017-10-25T10:55:06.519Z,4.00
2017-10-25T10:57:33.969Z,4.17
2017-10-25T11:00:01.428Z,4.57
2017-10-25T11:02:28.893Z,3.40
2017-10-25T11:04:56.346Z,4.33
2017-10-25T11:07:23.735Z,4.23
2017-10-25T11:09:51.122Z,3.23
2017-10-25T11:12:18.509Z,3.67
2017-10-25T11:14:45.900Z,3.53
2017-10-25T11:17:13.339Z,4.00
2017-10-25T11:19:40.744Z,4.00
2017-10-25T11:22:08.123Z,3.67
2017-10-25T11:24:35.591Z,4.87
2017-10-25T11:27:03.043Z,4.50
2017-10-25T11:29:30.520Z,4.23
2017-10-25T11:31:57.953Z,4.87
2017-10-25T11:34:25.410Z,5.10
2017-10-25T11:36:52.807Z,6.20
2017-10-25T11:39:20.193Z,6.43
2017-10-25T11:41:47.586Z,7.80
2017-10-25T11:44:15.043Z,8.03
2017-10-25T11:46:42.449Z,8.70
2017-10-25T11:49:09.830Z,8.73
2017-10-25T11:51:37.339Z,10.50
2017-10-25T11:54:04.743Z,10.10
2017-10-25T11:56:32.142Z,11.17
2017-10-25T11:58:59.541Z,10.27
2017-10-25T12:01:27.035Z,10.67
2017-10-25T12:03:54.432Z,10.90
2017-10-25T12:06:21.843Z,10.40
2017-10-25T12:08:49.314Z,10.30
2017-10-25T12:11:16.766Z,10.20
2017-10-25T12:13:44.230Z,10.60
2017-10-25T12:16:11.682Z,10.73
2017-10-25T12:18:39.079Z,8.90
2017-10-25T12:21:06.499Z,8.90
2017-10-25T12:23:33.890Z,10.23
2017-10-25T12:26:01.307Z,9.73
2017-10-25T12:28:28.694Z,9.17
2017-10-25T12:30:56.114Z,10.27
2017-10-25T12:33:23.574Z,9.37
2017-10-25T12:35:51.070Z,11.00
2017-10-25T12:38:18.474Z,11.23
2017-10-25T12:40:45.927Z,11.40
2017-10-25T12:43:13.404Z,12.13
2017-10-25T12:45:40.883Z,12.23
2017-10-25T12:48:08.291Z,12.10
2017-10-25T12:50:35.687Z,12.07
2017-10-25T12:53:03.092Z,13.30
2017-10-25T12:55:30.486Z,13.20
2017-10-25T12:57:57.883Z,12.50
2017-10-25T13:00:25.279Z,13.37
2017-10-25T13:02:52.688Z,14.13
2017-10-25T13:05:20.099Z,16.10
2017-10-25T13:07:47.567Z,16.20
2017-10-25T13:10:17.446Z,15.30
2017-10-25T13:12:46.663Z,15.07
2017-10-25T13:15:15.848Z,16.67
2017-10-25T13:17:44.582Z,16.10
2017-10-25T13:20:12.014Z,16.90
2017-10-25T13:22:39.415Z,16.00
2017-10-25T13:25:06.818Z,14.73
2017-10-25T13:27:34.279Z,13.97
2017-10-25T13:30:01.683Z,15.50
2017-10-25T13:32:29.094Z,15.10
2017-10-25T13:34:56.486Z,15.30
2017-10-25T13:37:24.002Z,14.60
2017-10-25T13:39:51.467Z,14.20
2017-10-25T13:42:18.937Z,14.10
2017-10-25T13:44:46.355Z,16.27
2017-10-25T13:47:13.844Z,15.93
2017-10-25T13:49:41.312Z,13.40
2017-10-25T13:52:08.695Z,14.97
2017-10-25T13:54:36.218Z,14.40
2017-10-25T13:57:03.664Z,13.00
2017-10-25T13:59:31.066Z,12.80
2017-10-25T14:01:58.464Z,12.50
2017-10-25T14:04:25.939Z,12.13
2017-10-25T14:06:53.390Z,13.20
2017-10-25T14:09:20.852Z,13.57
2017-10-25T14:11:48.246Z,12.83
2017-10-25T14:14:15.659Z,12.77
2017-10-25T14:16:43.055Z,12.10
2017-10-25T14:19:10.460Z,11.60
2017-10-25T14:21:37.851Z,11.50
2017-10-25T14:24:05.256Z,11.70
2017-10-25T14:26:44.456Z,11.53
2017-10-25T14:29:11.899Z,10.70
2017-10-25T14:31:39.322Z,12.07
2017-10-25T14:34:06.726Z,12.07
2017-10-25T14:36:34.263Z,12.00
2017-10-25T14:39:01.646Z,11.60
2017-10-25T14:41:29.159Z,11.80
2017-10-25T14:43:56.560Z,13.10
2017-10-25T14:46:23.964Z,11.97
2017-10-25T14:48:51.385Z,11.00
2017-10-25T14:51:18.791Z,11.80
2017-10-25T14:53:46.191Z,12.27
2017-10-25T14:56:13.587Z,9.53
2017-10-25T14:58:40.982Z,11.33
2017-10-25T15:01:08.387Z,11.23
2017-10-25T15:03:35.788Z,9.87
2017-10-25T15:06:03.184Z,10.07
2017-10-25T15:08:30.658Z,10.20
2017-10-25T15:10:58.069Z,10.80
2017-10-25T15:13:25.446Z,9.80
2017-10-25T15:15:52.847Z,9.20
2017-10-25T15:18:20.252Z,9.70
2017-10-25T15:20:47.646Z,8.30
2017-10-25T15:23:15.035Z,7.83
2017-10-25T15:25:42.455Z,8.57
2017-10-25T15:28:09.925Z,8.50
2017-10-25T15:30:37.370Z,8.50
2017-10-25T15:33:04.775Z,8.30
2017-10-25T15:35:32.180Z,9.47
2017-10-25T15:37:59.634Z,8.73
2017-10-25T15:40:27.027Z,9.07
2017-10-25T15:42:54.419Z,7.67
2017-10-25T15:45:21.805Z,8.97
2017-10-25T15:47:49.215Z,8.50
2017-10-25T15:50:16.603Z,8.40
2017-10-25T15:52:44.062Z,7.67
2017-10-25T15:55:11.455Z,8.03
2017-10-25T15:57:38.857Z,8.23
2017-10-25T16:00:06.238Z,8.13
2017-10-25T16:02:33.631Z,7.83
2017-10-25T16:05:01.051Z,8.70
2017-10-25T16:07:28.454Z,8.87
2017-10-25T16:09:55.851Z,9.63
2017-10-25T16:12:23.319Z,8.60
2017-10-25T16:14:50.726Z,8.97
2017-10-25T16:17:18.148Z,9.10
2017-10-25T16:19:45.539Z,9.70
2017-10-25T16:22:12.934Z,10.17
2017-10-25T16:24:40.335Z,8.60
2017-10-25T16:27:07.751Z,9.50
2017-10-25T16:29:35.169Z,10.23
2017-10-25T16:32:02.568Z,9.60
2017-10-25T16:34:29.962Z,8.90
2017-10-25T16:36:57.366Z,8.57
2017-10-25T16:39:24.769Z,8.17
2017-10-25T16:41:52.168Z,7.93
2017-10-25T16:44:19.634Z,7.50
2017-10-25T16:46:47.034Z,7.43
2017-10-25T16:49:14.439Z,6.87
2017-10-25T16:51:41.910Z,6.07
2017-10-25T16:54:09.310Z,5.23
2017-10-25T16:56:36.712Z,6.00
2017-10-25T16:59:04.112Z,6.40
2017-10-25T17:01:31.510Z,5.70
2017-10-25T17:03:58.911Z,6.97
2017-10-25T17:06:26.316Z,5.37
2017-10-25T17:08:53.730Z,5.13
2017-10-25T17:11:21.123Z,4.40
2017-10-25T17:13:48.616Z,4.17
2017-10-25T17:16:16.251Z,4.17
2017-10-25T17:18:43.646Z,4.13
2017-10-25T17:21:11.129Z,5.73
2017-10-25T17:23:38.537Z,4.13
2017-10-25T17:26:05.955Z,4.37
2017-10-25T17:28:33.334Z,3.90
2017-10-25T17:31:00.730Z,4.40
2017-10-25T17:33:28.137Z,3.40
2017-10-25T17:35:55.528Z,3.27
2017-10-25T17:38:22.919Z,3.60
2017-10-25T17:40:50.321Z,3.37
2017-10-25T17:43:17.738Z,3.90
2017-10-25T17:45:45.146Z,3.87
2017-10-25T17:48:12.538Z,2.83
2017-10-25T17:50:39.934Z,2.73
2017-10-25T17:53:07.340Z,2.90
2017-10-25T17:55:34.754Z,3.00
2017-10-25T18:00:52.718Z,2.77
2017-10-25T18:03:20.270Z,2.53
2017-10-25T18:05:47.662Z,2.23
2017-10-25T18:08:15.083Z,2.60
2017-10-25T18:10:42.546Z,2.43
2017-10-25T18:13:09.932Z,2.53
2017-10-25T18:15:37.323Z,2.23
2017-10-25T18:18:04.716Z,2.00
2017-10-25T18:20:32.172Z,2.60
2017-10-25T18:22:59.554Z,2.40
2017-10-25T18:25:26.971Z,2.70
2017-10-25T18:27:54.358Z,2.40
2017-10-25T18:30:21.803Z,2.30
2017-10-25T18:32:49.250Z,2.50
2017-10-25T18:35:16.707Z,2.40
2017-10-25T18:37:44.177Z,1.80
2017-10-25T18:40:11.558Z,2.53
2017-10-25T18:42:38.975Z,2.87
2017-10-25T18:45:06.372Z,1.97
2017-10-25T18:47:33.782Z,2.10
2017-10-25T18:50:01.230Z,2.03
2017-10-25T18:52:28.632Z,2.50
2017-10-25T18:54:56.026Z,2.20
2017-10-25T18:57:23.526Z,3.57
2017-10-25T18:59:50.981Z,2.03
2017-10-25T19:02:18.415Z,2.17
2017-10-25T19:04:45.812Z,2.53
2017-10-25T19:07:13.263Z,2.43
2017-10-25T19:09:40.657Z,1.90
2017-10-25T19:12:08.042Z,2.03
2017-10-25T19:14:35.434Z,2.27
2017-10-25T19:17:02.855Z,2.03
2017-10-25T19:19:30.238Z,2.60
2017-10-25T19:21:57.635Z,2.00
2017-10-25T19:24:25.027Z,3.13
2017-10-25T19:26:52.450Z,2.23
2017-10-25T19:29:19.830Z,2.17
2017-10-25T19:31:47.302Z,3.00
2017-10-25T19:34:14.682Z,2.43
2017-10-25T19:36:42.103Z,4.17
2017-10-25T19:39:09.559Z,2.60
2017-10-25T19:41:36.964Z,2.60
2017-10-25T19:44:04.362Z,2.70
2017-10-25T19:46:31.842Z,3.33
2017-10-25T19:48:59.210Z,2.70
2017-10-25T19:51:26.615Z,2.90
2017-10-25T19:53:54.022Z,2.63
2017-10-25T19:56:21.426Z,2.60
2017-10-25T19:58:48.802Z,2.93
2017-10-25T20:01:16.219Z,2.93
2017-10-25T20:03:43.603Z,3.10
2017-10-25T20:06:10.991Z,3.10
2017-10-25T20:08:38.424Z,2.60
2017-10-25T20:11:05.878Z,3.17
2017-10-25T20:13:33.285Z,3.80
2017-10-25T20:16:00.690Z,2.90
2017-10-25T20:18:28.143Z,3.87
2017-10-25T20:20:55.616Z,3.30
2017-10-25T20:23:23.002Z,3.20
2017-10-25T20:25:50.415Z,3.60
2017-10-25T20:28:17.816Z,3.80
2017-10-25T20:30:45.206Z,3.57
2017-10-25T20:33:12.686Z,3.23
2017-10-25T20:35:40.078Z,3.17
2017-10-25T20:38:07.495Z,3.93
2017-10-25T20:40:34.951Z,3.53
2017-10-25T20:43:02.354Z,3.70
2017-10-25T20:45:29.766Z,3.00
2017-10-25T20:47:57.174Z,3.17
2017-10-25T20:50:24.570Z,2.97
2017-10-25T20:52:51.962Z,3.27
2017-10-25T20:55:19.360Z,3.07
2017-10-25T20:57:46.856Z,3.17
2017-10-25T21:00:14.296Z,3.23
2017-10-25T21:02:41.742Z,2.80
2017-10-25T21:05:09.207Z,3.57
2017-10-25T21:07:36.600Z,3.30
2017-10-25T21:10:04.003Z,3.20
2017-10-25T21:12:31.392Z,3.20
2017-10-25T21:14:58.803Z,3.70
2017-10-25T21:17:26.297Z,3.70
2017-10-25T21:19:53.743Z,3.60
2017-10-25T21:22:21.143Z,4.20
2017-10-25T21:24:48.568Z,3.93
2017-10-25T21:27:15.946Z,3.97
2017-10-25T21:29:43.368Z,3.80
2017-10-25T21:32:10.773Z,4.77
2017-10-25T21:34:38.169Z,4.00
2017-10-25T21:37:05.638Z,4.70
2017-10-25T21:39:33.086Z,4.13
2017-10-25T21:42:00.483Z,4.47
2017-10-25T21:44:27.870Z,6.10
2017-10-25T21:46:55.268Z,5.73
2017-10-25T21:49:22.654Z,7.83
2017-10-25T21:51:50.048Z,5.70
2017-10-25T21:54:17.436Z,6.30
2017-10-25T21:56:44.886Z,6.27
2017-10-25T21:59:12.405Z,6.80
2017-10-25T22:01:39.903Z,7.30
2017-10-25T22:04:07.298Z,7.60
2017-10-25T22:06:34.718Z,7.10
2017-10-25T22:09:02.131Z,7.73
2017-10-25T22:11:29.586Z,8.43
2017-10-25T22:13:56.983Z,8.17
2017-10-25T22:16:24.406Z,7.90
2017-10-25T22:18:51.787Z,8.47
2017-10-25T22:21:19.203Z,8.77
2017-10-25T22:23:46.703Z,7.47
2017-10-25T22:26:14.093Z,8.07
2017-10-25T22:28:41.490Z,7.80
2017-10-25T22:31:08.885Z,8.20
2017-10-25T22:33:36.276Z,8.07
2017-10-25T22:36:03.667Z,9.10
2017-10-25T22:38:31.066Z,8.70
2017-10-25T22:40:58.491Z,9.67
2017-10-25T22:43:25.918Z,9.40
2017-10-25T22:45:53.334Z,9.93
2017-10-25T22:48:20.815Z,10.33
2017-10-25T22:50:48.204Z,9.50
2017-10-25T22:53:15.621Z,8.20
2017-10-25T22:55:43.006Z,8.00
2017-10-25T22:58:10.406Z,8.60
2017-10-25T23:00:37.805Z,9.33
2017-10-25T23:03:05.202Z,10.47
2017-10-25T23:05:32.690Z,10.10
2017-10-25T23:08:00.087Z,9.67
2017-10-25T23:10:27.492Z,10.37
2017-10-25T23:12:54.960Z,8.00
2017-10-25T23:15:22.351Z,9.30
2017-10-25T23:17:49.742Z,7.93
2017-10-25T23:20:17.174Z,8.87
2017-10-25T23:22:44.570Z,8.90
2017-10-25T23:25:11.968Z,8.90
2017-10-25T23:27:39.396Z,9.03
2017-10-25T23:30:06.869Z,9.20
2017-10-25T23:32:34.270Z,9.10
2017-10-25T23:35:01.662Z,9.70
2017-10-25T23:37:29.058Z,8.87
2017-10-25T23:39:56.475Z,8.63
2017-10-25T23:42:23.931Z,8.90
2017-10-25T23:44:51.386Z,9.80
2017-10-25T23:47:18.769Z,8.13
2017-10-25T23:49:46.167Z,9.93
2017-10-25T23:52:13.654Z,10.10
2017-10-25T23:54:41.116Z,10.20
2017-10-25T23:57:08.513Z,9.40
2017-10-25T23:59:35.920Z,8.57
